Terminal Aerodrome Forecast
Issued by NWS

Home | Current Version | Previous Version | Text Only | Print | Product List | Glossary On
Versions: 1 2 3 4 5 6 7 8 9 10 11 12 13 14 15 16 17 18 19 20 21
000
FTUS46 KMTR 200500
TAFMRY
TAF
KMRY 200536Z 2006/2106 VRB03KT P6SM SCT008
     FM200700 VRB03KT P6SM BKN008
     FM201000 VRB03KT P6SM OVC004
     FM201800 VRB03KT P6SM SCT015 BKN150
     FM202000 26008KT P6SM BKN150=

USA.gov is the U.S. government's official web portal to all federal, state and local government web resources and services.